Temp: 5.7°C   Baro: 1005.2mb
  Wind: 4.9mph   Dir: NE (42°)
  Rain: 4.2mm (0.0mm/hr)
  Solar: 0W/m2  Hum: 88%

Historic data

Bath Spa Weather Station Historical Data
Daily Summary for September 19, 2019 Units:  English    Metric   Both
Daily Weekly Monthly Yearly Custom
  High: Low: Average:
Temperature: 58.9 °F 48.9 °F 52.4 °F
Dew Point: 57.2 °F 45.3 °F 49.2 °F
Humidity: 95% 83% 89%
Wind Speed: 21.4mph 0mph 2.6mph
Wind Gust: 29mph - -
Wind- - South
Pressure: 29.47 in 29.06 in -
Precipitation: 0.49 in    
Historical Graphs
 
 
Tabular Data for September 19, 2019
Time Temperature Dew Point Pressure Wind Wind Speed Wind Gust Humidity Rainfall Rate (Hourly) solar
00:04 53.4 °F 49.8 °F 29.47 in Calm     87.4% 0.00 in 0 W/m2
00:09 53.4 °F 50 °F 29.47 in Calm     88% 0.00 in 0 W/m2
00:14 53.3 °F 49.9 °F 29.47 in Calm     88% 0.00 in 0 W/m2
00:19 53.2 °F 49.8 °F 29.47 in Calm     88% 0.00 in 0 W/m2
00:24 53.2 °F 49.8 °F 29.47 in Calm     88% 0.00 in 0 W/m2
00:29 53.2 °F 49.8 °F 29.47 in Calm     88% 0.00 in 0 W/m2
00:34 53.2 °F 49.8 °F 29.47 in Calm     88% 0.00 in 0 W/m2
00:39 53.2 °F 49.8 °F 29.46 in Calm     88% 0.00 in 0 W/m2
00:44 53.2 °F 49.9 °F 29.46 in Calm     88.6% 0.00 in 0 W/m2
00:49 53.2 °F 50 °F 29.47 in Calm     89% 0.00 in 0 W/m2
00:54 53.2 °F 50 °F 29.47 in Calm     89% 0.01 in 0 W/m2
00:59 53.1 °F 49.9 °F 29.46 in Calm     89.2% 0.01 in 0 W/m2
01:04 53 °F 50.1 °F 29.46 in Calm     90% 0.02 in 0 W/m2
01:09 52.9 °F 50 °F 29.46 in Calm     90% 0.03 in 0 W/m2
01:14 52.6 °F 49.9 °F 29.46 in Calm     90.5% 0.03 in 0 W/m2
01:19 52.5 °F 50 °F 29.46 in Calm     91% 0.03 in 0 W/m2
01:24 52.3 °F 49.8 °F 29.46 in Calm     91% 0.04 in 0 W/m2
01:29 52.3 °F 49.8 °F 29.45 in Calm     91% 0.04 in 0 W/m2
01:34 52.3 °F 49.9 °F 29.45 in Calm     91.8% 0.05 in 0 W/m2
01:39 52.3 °F 50 °F 29.45 in Calm     92% 0.05 in 0 W/m2
01:44 52.3 °F 50 °F 29.45 in Calm     92% 0.05 in 0 W/m2
01:49 52.3 °F 50 °F 29.46 in Calm     92% 0.05 in 0 W/m2
01:54 52.3 °F 49.9 °F 29.46 in Calm     92% 0.06 in 0 W/m2
01:59 52.3 °F 50 °F 29.45 in Calm     92% 0.06 in 0 W/m2
02:04 52.3 °F 50 °F 29.44 in Calm     92% 0.06 in 0 W/m2
02:09 52.3 °F 50 °F 29.43 in Calm     92% 0.06 in 0 W/m2
02:14 52.3 °F 50 °F 29.42 in Calm     92% 0.06 in 0 W/m2
02:19 52.3 °F 50 °F 29.42 in Calm     92% 0.06 in 0 W/m2
02:24 52.3 °F 50 °F 29.42 in Calm     92% 0.06 in 0 W/m2
02:29 52.3 °F 50 °F 29.43 in Calm     92% 0.06 in 0 W/m2
02:34 52.4 °F 50.1 °F 29.44 in Calm     92% 0.05 in 0 W/m2
02:39 52.5 °F 50.2 °F 29.44 in Calm     92% 0.05 in 0 W/m2
02:44 52.5 °F 50.2 °F 29.44 in Calm     92% 0.05 in 0 W/m2
02:49 52.5 °F 50.2 °F 29.44 in Calm     92% 0.05 in 0 W/m2
02:54 52.4 °F 50.1 °F 29.44 in Calm     92% 0.04 in 0 W/m2
02:59 52.3 °F 50 °F 29.44 in Calm     92% 0.04 in 0 W/m2
03:04 52.2 °F 49.8 °F 29.44 in Calm     92% 0.03 in 0 W/m2
03:09 52.2 °F 49.9 °F 29.43 in Calm     92% 0.02 in 0 W/m2
03:14 52.3 °F 49.9 °F 29.43 in Calm     92% 0.02 in 0 W/m2
03:19 52.3 °F 50 °F 29.43 in Calm     92% 0.02 in 0 W/m2
03:24 52.3 °F 50.1 °F 29.42 in Calm     92% 0.02 in 0 W/m2
03:29 52.5 °F 50.2 °F 29.42 in Calm     92% 0.02 in 0 W/m2
03:34 52.8 °F 50.4 °F 29.41 in Calm     92% 0.02 in 0 W/m2
03:39 52.8 °F 50.5 °F 29.41 in Calm     92% 0.02 in 0 W/m2
03:44 52.9 °F 50.5 °F 29.41 in Calm     92% 0.02 in 0 W/m2
03:49 52.9 °F 50.5 °F 29.41 in Calm     92% 0.02 in 0 W/m2
03:54 52.9 °F 50.5 °F 29.42 in Calm     92% 0.02 in 0 W/m2
03:59 53.1 °F 50.7 °F 29.42 in Calm     92% 0.01 in 0 W/m2
04:04 53.3 °F 50.8 °F 29.42 in Calm     91% 0.01 in 0 W/m2
04:09 53.4 °F 50.9 °F 29.41 in Calm     91% 0.00 in 0 W/m2
04:14 53.7 °F 51.2 °F 29.41 in Calm     91% 0.00 in 0 W/m2
04:19 53.8 °F 51.2 °F 29.41 in Calm     90.8% 0.00 in 0 W/m2
04:24 53.9 °F 51 °F 29.41 in Calm     90% 0.00 in 0 W/m2
04:29 54 °F 51.2 °F 29.41 in Calm     90% 0.00 in 0 W/m2
04:34 54.1 °F 51.3 °F 29.42 in Calm     90% 0.00 in 0 W/m2
04:39 54 °F 51.1 °F 29.42 in Calm     90% 0.00 in 0 W/m2
04:44 54.1 °F 51.3 °F 29.42 in Calm     90% 0.00 in 0 W/m2
04:49 54.1 °F 51.3 °F 29.41 in Calm     90% 0.00 in 0 W/m2
04:54 54.1 °F 51.3 °F 29.41 in Calm     90% 0.00 in 0 W/m2
04:59 54.2 °F 51.3 °F 29.42 in Calm     90% 0.00 in 0 W/m2
05:04 54.3 °F 51.4 °F 29.41 in Calm     90% 0.00 in 0 W/m2
05:09 54.3 °F 51.4 °F 29.42 in Calm     90% 0.00 in 0 W/m2
05:14 54.3 °F 51.4 °F 29.41 in Calm     90% 0.00 in 0 W/m2
05:19 54.1 °F 51.3 °F 29.41 in Calm     90% 0.00 in 0 W/m2
05:24 54.1 °F 51.2 °F 29.42 in Calm     90% 0.00 in 0 W/m2
05:29 54 °F 51.3 °F 29.41 in Calm     90.4% 0.00 in 0 W/m2
05:34 54 °F 51.4 °F 29.41 in Calm     91% 0.00 in 0 W/m2
05:39 54 °F 51.4 °F 29.41 in Calm     91% 0.00 in 0 W/m2
05:44 54 °F 51.4 °F 29.41 in Calm     91% 0.00 in 0 W/m2
05:49 54 °F 51.4 °F 29.41 in Calm     91% 0.00 in 0 W/m2
05:54 54 °F 51.4 °F 29.41 in Calm     91% 0.00 in 0 W/m2
05:59 54 °F 51.4 °F 29.41 in Calm     91% 0.00 in 0 W/m2
06:04 54 °F 51.4 °F 29.41 in Calm     91% 0.00 in 0 W/m2
06:09 54 °F 51.4 °F 29.41 in Calm     91% 0.00 in 0 W/m2
06:14 54 °F 51.2 °F 29.41 in Calm     90.4% 0.00 in 0 W/m2
06:19 54 °F 51.2 °F 29.41 in Calm     90.6% 0.00 in 0 W/m2
06:24 54 °F 51.4 °F 29.41 in Calm     91% 0.00 in 0 W/m2
06:29 53.8 °F 51.3 °F 29.42 in Calm     91% 0.00 in 0 W/m2
06:34 53.8 °F 51.3 °F 29.42 in Calm     91% 0.00 in 0 W/m2
06:39 53.8 °F 51.3 °F 29.42 in Calm     91% 0.00 in 0 W/m2
06:44 53.8 °F 51.3 °F 29.42 in Calm     91% 0.00 in 0 W/m2
06:49 54 °F 51.4 °F 29.42 in Calm     91% 0.00 in 0 W/m2
06:54 54 °F 51.4 °F 29.42 in Calm     91% 0.00 in 0 W/m2
06:59 54 °F 51.3 °F 29.42 in Calm     90.6% 0.00 in 0 W/m2
07:04 54.1 °F 51.3 °F 29.42 in Calm     90% 0.00 in 0 W/m2
07:08 54.1 °F 51.3 °F 29.42 in Calm     90% 0.00 in 0 W/m2
07:14 54.1 °F 51 °F 29.43 in Calm     89.2% 0.00 in 0 W/m2
07:19 54.3 °F 51.1 °F 29.43 in Calm     89% 0.00 in 0 W/m2
07:24 54.2 °F 51 °F 29.42 in Calm     89% 0.00 in 0 W/m2
07:29 54.1 °F 50.9 °F 29.42 in Calm     89% 0.01 in 0 W/m2
07:34 54.1 °F 50.8 °F 29.42 in Calm     89% 0.01 in 0 W/m2
07:39 54 °F 50.7 °F 29.42 in Calm     89% 0.01 in 0 W/m2
07:44 53.8 °F 50.5 °F 29.42 in Calm     89% 0.01 in 0 W/m2
07:49 53.8 °F 50.5 °F 29.42 in Calm     89% 0.01 in 0 W/m2
07:54 53.8 °F 50.5 °F 29.42 in Calm     89% 0.01 in 0 W/m2
07:59 53.8 °F 50.5 °F 29.42 in Calm     89% 0.01 in 0 W/m2
08:04 53.6 °F 50.4 °F 29.42 in Calm     89% 0.01 in 0 W/m2
08:09 53.4 °F 50.2 °F 29.43 in Calm     89% 0.01 in 0 W/m2
08:14 53.4 °F 50.2 °F 29.43 in Calm     89% 0.01 in 0 W/m2
08:19 53.4 °F 50.2 °F 29.43 in Calm     89% 0.01 in 0 W/m2
08:23 53.4 °F 50.2 °F 29.43 in Calm     89% 0.01 in 0 W/m2
08:29 53.4 °F 50.2 °F 29.43 in Calm     89% 0.01 in 0 W/m2
08:34 53.4 °F 50.2 °F 29.43 in Calm     89% 0.00 in 0 W/m2
08:39 53.4 °F 50.2 °F 29.43 in Calm     89% 0.00 in 7 W/m2
08:44 53.2 °F 50 °F 29.42 in Calm     89% 0.00 in 7 W/m2
08:49 53.2 °F 50.1 °F 29.43 in Calm     89.2% 0.00 in 9 W/m2
08:54 53.2 °F 50.2 °F 29.43 in Calm     89.4% 0.00 in 16 W/m2
08:59 53.2 °F 50.3 °F 29.42 in Calm     89.8% 0.00 in 18 W/m2
09:04 53.2 °F 50.4 °F 29.42 in Calm     90% 0.00 in 16 W/m2
09:09 53.2 °F 50.4 °F 29.42 in Calm     90% 0.00 in 16 W/m2
09:14 53.2 °F 50.4 °F 29.42 in Calm     90% 0.00 in 21 W/m2
09:19 53.2 °F 50.4 °F 29.42 in Calm     90% 0.00 in 39 W/m2
09:24 53.2 °F 50.4 °F 29.41 in Calm     90% 0.00 in 44 W/m2
09:29 53.2 °F 50.4 °F 29.41 in Calm     90% 0.00 in 42 W/m2
09:34 53.2 °F 50.4 °F 29.41 in Calm     90% 0.00 in 40 W/m2
09:39 53.2 °F 50.4 °F 29.41 in Calm     90% 0.00 in 25 W/m2
09:44 53.2 °F 50.4 °F 29.41 in Calm     90% 0.00 in 26 W/m2
09:49 53.2 °F 50.4 °F 29.41 in Calm     90% 0.00 in 49 W/m2
09:54 53.2 °F 50.4 °F 29.40 in Calm     90% 0.00 in 65 W/m2
09:59 53.2 °F 50.4 °F 29.40 in Calm     90% 0.00 in 79 W/m2
10:04 53.2 °F 50.4 °F 29.39 in Calm     90% 0.00 in 83 W/m2
10:09 53.2 °F 50.4 °F 29.39 in Calm     90% 0.00 in 81 W/m2
10:14 53.3 °F 50.4 °F 29.40 in Calm     90% 0.00 in 37 W/m2
10:19 53.4 °F 50.5 °F 29.40 in Calm     90% 0.00 in 70 W/m2
10:24 53.4 °F 50.5 °F 29.39 in Calm     90% 0.00 in 86 W/m2
10:29 53.4 °F 50.5 °F 29.39 in Calm     90% 0.00 in 72 W/m2
10:34 53.4 °F 50.5 °F 29.39 in Calm     90% 0.00 in 163 W/m2
10:38 53.6 °F 50.7 °F 29.39 in Calm     90% 0.00 in 144 W/m2
10:44 53.6 °F 50.7 °F 29.39 in Calm     90% 0.00 in 63 W/m2
10:49 53.6 °F 50.5 °F 29.39 in Calm     89.2% 0.00 in 39 W/m2
10:54 53.5 °F 50.4 °F 29.39 in Calm     89.2% 0.00 in 28 W/m2
10:59 53.6 °F 50.4 °F 29.38 in Calm     89% 0.00 in 40 W/m2
11:04 53.6 °F 50.4 °F 29.38 in Calm     89% 0.00 in 56 W/m2
11:09 53.6 °F 50.5 °F 29.38 in Calm     89.3% 0.00 in 58 W/m2
11:14 53.6 °F 50.5 °F 29.37 in Calm     89.4% 0.00 in 63 W/m2
11:19 53.6 °F 50.6 °F 29.37 in Calm     89.4% 0.00 in 42 W/m2
11:24 53.6 °F 50.7 °F 29.37 in Calm     90% 0.00 in 54 W/m2
11:29 53.7 °F 50.4 °F 29.36 in Calm     89% 0.00 in 49 W/m2
11:34 53.6 °F 50.4 °F 29.36 in Calm     89% 0.00 in 53 W/m2
11:39 53.5 °F 50.3 °F 29.36 in Calm     89% 0.01 in 40 W/m2
11:44 53.4 °F 50.4 °F 29.36 in Calm     89.8% 0.01 in 58 W/m2
11:49 53.4 °F 50.4 °F 29.35 in Calm     89.6% 0.01 in 60 W/m2
11:54 53.4 °F 50.2 °F 29.35 in Calm     89.2% 0.02 in 26 W/m2
11:59 53.2 °F 50.4 °F 29.34 in Calm     90% 0.02 in 23 W/m2
12:04 53.1 °F 50.2 °F 29.34 in Calm     90% 0.04 in 18 W/m2
12:09 52.9 °F 50.2 °F 29.34 in Calm     90.4% 0.05 in 19 W/m2
12:14 52.9 °F 50.4 °F 29.33 in Calm     91% 0.05 in 18 W/m2
12:19 52.9 °F 50.4 °F 29.33 in Calm     91% 0.06 in 18 W/m2
12:24 52.7 °F 50.2 °F 29.32 in Calm     91% 0.06 in 21 W/m2
12:29 52.6 °F 50.1 °F 29.30 in Calm     91% 0.06 in 42 W/m2
12:34 52.5 °F 50 °F 29.29 in Calm     91% 0.06 in 44 W/m2
12:39 52.5 °F 50 °F 29.28 in Calm     91% 0.06 in 46 W/m2
12:44 52.5 °F 50 °F 29.28 in Calm     91% 0.06 in 42 W/m2
12:49 52.5 °F 50 °F 29.28 in Calm     91% 0.06 in 26 W/m2
12:54 52.5 °F 50 °F 29.28 in Calm     91% 0.06 in 30 W/m2
12:59 52.4 °F 49.9 °F 29.28 in Calm     91% 0.05 in 26 W/m2
13:04 52.4 °F 49.9 °F 29.28 in Calm     91% 0.04 in 11 W/m2
13:09 52.3 °F 49.8 °F 29.28 in Calm     91% 0.04 in 11 W/m2
13:14 52.3 °F 49.8 °F 29.27 in Calm     91% 0.06 in 11 W/m2
13:19 52.2 °F 49.6 °F 29.26 in Calm     91.2% 0.09 in 28 W/m2
13:24 52.1 °F 49.7 °F 29.25 in Calm     91.5% 0.09 in 44 W/m2
13:29 52 °F 49.6 °F 29.24 in Calm     92% 0.10 in 42 W/m2
13:34 51.9 °F 49.6 °F 29.23 in Calm     92% 0.10 in 37 W/m2
13:39 51.7 °F 49.6 °F 29.23 in Calm     92% 0.11 in 33 W/m2
13:44 51.6 °F 49.5 °F 29.23 in Calm     92% 0.11 in 19 W/m2
13:49 51.6 °F 49.6 °F 29.23 in Calm     92.8% 0.13 in 11 W/m2
13:54 51.5 °F 49.6 °F 29.23 in Calm     93% 0.17 in 9 W/m2
13:59 51.4 °F 49.5 °F 29.23 in Calm     93% 0.18 in 12 W/m2
14:04 51.4 °F 49.5 °F 29.23 in Calm     93% 0.19 in 12 W/m2
14:09 51.3 °F 49.3 °F 29.22 in Calm     93% 0.19 in 11 W/m2
14:14 51.3 °F 49.3 °F 29.22 in Calm     93% 0.19 in 11 W/m2
14:19 51.3 °F 49.3 °F 29.19 in Calm     93% 0.17 in 12 W/m2
14:24 51.7 °F 50 °F 29.19 in Calm     93.8% 0.17 in 11 W/m2
14:29 53.6 °F 52 °F 29.19 in Calm     94% 0.16 in 0 W/m2
14:34 54.3 °F 52.7 °F 29.19 in NE 4.5 mph 10 mph 94% 0.16 in 0 W/m2
14:39 56.3 °F 54.7 °F 29.19 in Calm   10 mph 94.6% 0.15 in 0 W/m2
14:44 58.1 °F 56.7 °F 29.19 in Calm   6 mph 95% 0.16 in 0 W/m2
14:49 58.3 °F 56.8 °F 29.18 in Calm     95% 0.15 in 0 W/m2
14:54 58.5 °F 56.9 °F 29.18 in Calm     94.4% 0.12 in 0 W/m2
14:59 58.9 °F 57.2 °F 29.17 in South 2.6 mph 7 mph 94.4% 0.09 in 11 W/m2
15:04 53.6 °F 51.6 °F 29.17 in SSW 4.2 mph 8 mph 93% 0.09 in 23 W/m2
15:09 51.4 °F 49.3 °F 29.20 in South 4.4 mph 10 mph 92% 0.08 in 51 W/m2
15:14 51.2 °F 48.6 °F 29.19 in South 3.2 mph 7 mph 91% 0.06 in 53 W/m2
15:19 51.1 °F 48.5 °F 29.19 in SSW 4.2 mph 8 mph 90.8% 0.05 in 40 W/m2
15:24 51.2 °F 48.1 °F 29.21 in SSE 8.4 mph 14 mph 89.2% 0.04 in 19 W/m2
15:29 51.4 °F 47.7 °F 29.20 in SSE 4.4 mph 12 mph 87% 0.04 in 14 W/m2
15:34 51.3 °F 47.4 °F 29.20 in SSE 5.4 mph 10 mph 86.4% 0.03 in 12 W/m2
15:38 51.2 °F 47.2 °F 29.20 in SSE 6 mph 10 mph 86% 0.03 in 9 W/m2
15:44 51 °F 47 °F 29.21 in SSE 5.2 mph 10 mph 86% 0.02 in 7 W/m2
15:49 50.7 °F 46.8 °F 29.22 in SSE 5.7 mph 13 mph 86% 0.02 in 0 W/m2
15:54 50.4 °F 46.4 °F 29.22 in South 9.1 mph 16 mph 86% 0.03 in 0 W/m2
15:59 49.9 °F 46 °F 29.21 in SSE 7.8 mph 14 mph 86% 0.03 in 0 W/m2
16:04 49.7 °F 45.8 °F 29.21 in South 7.4 mph 12 mph 86% 0.01 in 0 W/m2
16:09 49.6 °F 45.8 °F 29.20 in SSE 6 mph 12 mph 86.6% 0.01 in 0 W/m2
16:14 49.5 °F 45.6 °F 29.21 in SE 5.6 mph 12 mph 86.6% 0.01 in 0 W/m2
16:19 49.5 °F 45.7 °F 29.20 in SSE 8.7 mph 12 mph 87% 0.01 in 0 W/m2
16:24 49.5 °F 45.7 °F 29.20 in SSE 5 mph 12 mph 87% 0.01 in 0 W/m2
16:29 49.5 °F 45.7 °F 29.20 in SE 5.2 mph 12 mph 87% 0.01 in 0 W/m2
16:34 49.4 °F 45.6 °F 29.19 in SSE 5.1 mph 11 mph 87% 0.01 in 0 W/m2
16:39 49.2 °F 45.4 °F 29.20 in SSE 7.4 mph 14 mph 87% 0.02 in 0 W/m2
16:44 48.9 °F 45.3 °F 29.19 in SSE 6.6 mph 10 mph 87.4% 0.02 in 0 W/m2
16:49 48.9 °F 45.5 °F 29.19 in SE 5.5 mph 13 mph 88% 0.02 in 0 W/m2
16:54 49.2 °F 45.8 °F 29.18 in SSE 12.4 mph 18 mph 88% 0.02 in 0 W/m2
16:59 49.5 °F 46 °F 29.18 in SSE 7.5 mph 17 mph 88% 0.01 in 0 W/m2
17:04 49.6 °F 46.2 °F 29.17 in South 6.6 mph 15 mph 88% 0.01 in 0 W/m2
17:09 49.6 °F 46.2 °F 29.17 in SSE 5.7 mph 14 mph 88% 0.01 in 0 W/m2
17:14 49.7 °F 46.3 °F 29.16 in SSE 10.2 mph 17 mph 88% 0.01 in 0 W/m2
17:19 49.8 °F 46.4 °F 29.17 in SE 11.4 mph 18 mph 88% 0.01 in 0 W/m2
17:23 49.9 °F 46.5 °F 29.16 in SSE 11.2 mph 21 mph 88% 0.01 in 0 W/m2
17:29 50.2 °F 46.8 °F 29.17 in SSE 10.5 mph 21 mph 88% 0.01 in 0 W/m2
17:34 50.4 °F 46.9 °F 29.16 in SSE 9.1 mph 18 mph 88% 0.01 in 0 W/m2
17:39 50.4 °F 46.9 °F 29.16 in SSE 8.4 mph 16 mph 88% 0.00 in 0 W/m2
17:44 50.4 °F 46.9 °F 29.16 in SSE 8.2 mph 18 mph 88% 0.00 in 0 W/m2
17:49 50.7 °F 47.1 °F 29.16 in SSE 10.6 mph 19 mph 87.6% 0.00 in 0 W/m2
17:54 51 °F 47.2 °F 29.16 in South 7.4 mph 18 mph 86.8% 0.00 in 0 W/m2
17:59 51.2 °F 47.2 °F 29.16 in SSE 8.8 mph 13 mph 86.2% 0.00 in 0 W/m2
18:04 51.3 °F 47.3 °F 29.16 in South 7.4 mph 12 mph 86% 0.00 in 0 W/m2
18:09 51.3 °F 47.3 °F 29.16 in South 6 mph 13 mph 86% 0.00 in 0 W/m2
18:14 51.4 °F 47.4 °F 29.15 in SSE 9.8 mph 15 mph 85.8% 0.00 in 0 W/m2
18:19 51.6 °F 47.3 °F 29.16 in SSE 12.4 mph 20 mph 85% 0.00 in 0 W/m2
18:24 51.5 °F 46.9 °F 29.16 in SSW 9.4 mph 23 mph 84.2% 0.00 in 0 W/m2
18:28 51.3 °F 46.6 °F 29.15 in South 8 mph 13 mph 84% 0.00 in 0 W/m2
18:34 51.1 °F 46.4 °F 29.15 in South 4.9 mph 17 mph 84% 0.00 in 0 W/m2
18:39 50.8 °F 46.4 °F 29.15 in South 11.6 mph 19 mph 84.8% 0.00 in 0 W/m2
18:44 50.8 °F 46.3 °F 29.15 in South 21.4 mph 29 mph 84.4% 0.00 in 0 W/m2
18:49 51.1 °F 46.4 °F 29.15 in South 7.8 mph 22 mph 84% 0.00 in 0 W/m2
18:54 50.9 °F 46.2 °F 29.15 in South 7.6 mph 17 mph 84% 0.00 in 0 W/m2
18:59 50.8 °F 46.1 °F 29.15 in South 5.7 mph 17 mph 84% 0.00 in 0 W/m2
19:04 50.9 °F 46.4 °F 29.15 in South 6.8 mph 17 mph 84.4% 0.00 in 0 W/m2
19:09 50.9 °F 46.6 °F 29.15 in SSW 7 mph 18 mph 85% 0.00 in 0 W/m2
19:14 51 °F 46.7 °F 29.15 in SW 6.5 mph 19 mph 85% 0.00 in 0 W/m2
19:19 50.9 °F 46.6 °F 29.15 in SSW 5.8 mph 14 mph 85% 0.00 in 0 W/m2
19:24 51.1 °F 46.8 °F 29.15 in SSW 7 mph 18 mph 85% 0.00 in 0 W/m2
19:29 51.1 °F 46.8 °F 29.15 in SSW 5.8 mph 14 mph 85% 0.00 in 0 W/m2
19:34 51.1 °F 46.8 °F 29.15 in South 6.3 mph 16 mph 85% 0.00 in 0 W/m2
19:39 51.3 °F 46.8 °F 29.14 in South 9.2 mph 19 mph 84.4% 0.00 in 0 W/m2
19:44 51.4 °F 46.8 °F 29.14 in South 7.4 mph 16 mph 84% 0.00 in 0 W/m2
19:49 51.4 °F 46.8 °F 29.14 in South 9.1 mph 16 mph 84% 0.00 in 0 W/m2
19:54 51.6 °F 46.7 °F 29.14 in South 8.5 mph 16 mph 83.3% 0.00 in 0 W/m2
19:59 51.6 °F 46.6 °F 29.14 in SSW 9 mph 14 mph 83% 0.00 in 0 W/m2
20:04 51.6 °F 46.7 °F 29.14 in South 7.8 mph 16 mph 83.2% 0.00 in 0 W/m2
20:09 51.6 °F 46.6 °F 29.14 in SSW 8.3 mph 17 mph 83% 0.00 in 0 W/m2
20:14 51.6 °F 46.6 °F 29.14 in South 6.8 mph 13 mph 83% 0.00 in 0 W/m2
20:19 51.6 °F 46.6 °F 29.14 in SSW 5.6 mph 16 mph 83% 0.00 in 0 W/m2
20:24 51.6 °F 46.8 °F 29.13 in SSW 7.1 mph 14 mph 83.6% 0.00 in 0 W/m2
20:29 51.6 °F 46.9 °F 29.14 in South 5 mph 11 mph 84% 0.00 in 0 W/m2
20:34 51.6 °F 46.9 °F 29.13 in South 4.4 mph 10 mph 84% 0.00 in 0 W/m2
20:39 51.6 °F 46.9 °F 29.13 in South 4.1 mph 12 mph 84% 0.00 in 0 W/m2
20:43 51.4 °F 46.8 °F 29.13 in South 2.9 mph 7 mph 84% 0.00 in 0 W/m2
20:49 51.4 °F 47.1 °F 29.13 in SSE 3.7 mph 7 mph 85% 0.00 in 0 W/m2
20:54 51.4 °F 47.1 °F 29.13 in South 4.1 mph 10 mph 85% 0.00 in 0 W/m2
20:59 51.4 °F 47.1 °F 29.13 in South 5.1 mph 10 mph 85% 0.00 in 0 W/m2
21:04 51.4 °F 47.1 °F 29.13 in South 4.8 mph 11 mph 85% 0.00 in 0 W/m2
21:09 51.4 °F 47.1 °F 29.13 in SSE 2 mph 8 mph 85% 0.00 in 0 W/m2
21:14 51.4 °F 47.1 °F 29.12 in South 3.8 mph 11 mph 85% 0.00 in 0 W/m2
21:19 51.4 °F 47.1 °F 29.12 in South 3.6 mph 7 mph 85% 0.00 in 0 W/m2
21:24 51.3 °F 47 °F 29.12 in South 4 mph 8 mph 85% 0.00 in 0 W/m2
21:29 51.4 °F 47.1 °F 29.12 in SSE 5 mph 8 mph 85% 0.00 in 0 W/m2
21:34 51.4 °F 47 °F 29.13 in South 9.6 mph 18 mph 85% 0.00 in 0 W/m2
21:39 51.5 °F 47.2 °F 29.13 in South 4.8 mph 14 mph 85% 0.00 in 0 W/m2
21:44 51.4 °F 47.1 °F 29.13 in South 4.9 mph 10 mph 85% 0.00 in 0 W/m2
21:49 51.4 °F 47.1 °F 29.12 in South 8.4 mph 14 mph 85% 0.00 in 0 W/m2
21:54 51.4 °F 47.1 °F 29.12 in South 4.9 mph 12 mph 85% 0.00 in 0 W/m2
21:59 51.3 °F 47.3 °F 29.12 in South 7.4 mph 13 mph 85.8% 0.00 in 0 W/m2
22:04 51.3 °F 47.3 °F 29.12 in South 7.9 mph 13 mph 86% 0.00 in 0 W/m2
22:09 51.3 °F 47 °F 29.12 in South 7.6 mph 19 mph 85% 0.00 in 0 W/m2
22:14 51.4 °F 47.1 °F 29.12 in South 7 mph 19 mph 85% 0.00 in 0 W/m2
22:19 51.3 °F 46.9 °F 29.11 in SSE 7.4 mph 12 mph 85% 0.00 in 0 W/m2
22:24 51.3 °F 46.9 °F 29.11 in SSE 6.6 mph 13 mph 85% 0.00 in 0 W/m2
22:29 51.3 °F 46.9 °F 29.11 in South 9.2 mph 20 mph 85% 0.00 in 0 W/m2
22:34 51.3 °F 46.9 °F 29.11 in South 7.5 mph 15 mph 85% 0.00 in 0 W/m2
22:39 51.3 °F 46.8 °F 29.10 in SSE 6.6 mph 12 mph 84.6% 0.00 in 0 W/m2
22:44 51.1 °F 46.8 °F 29.10 in South 6.4 mph 15 mph 85% 0.00 in 0 W/m2
22:49 51 °F 46.7 °F 29.10 in SSE 5.6 mph 10 mph 85% 0.00 in 0 W/m2
22:54 50.8 °F 46.6 °F 29.10 in SSE 4.8 mph 11 mph 85.2% 0.00 in 0 W/m2
22:59 50.7 °F 46.8 °F 29.10 in SSE 5 mph 11 mph 86% 0.00 in 0 W/m2
23:04 50.7 °F 46.8 °F 29.10 in SSE 5.3 mph 10 mph 86% 0.00 in 0 W/m2
23:09 50.7 °F 46.8 °F 29.10 in SSE 4.5 mph 10 mph 86% 0.00 in 0 W/m2
23:14 50.5 °F 46.8 °F 29.09 in SSE 3.7 mph 10 mph 86.6% 0.00 in 0 W/m2
23:19 50.5 °F 46.8 °F 29.08 in South 5.6 mph 10 mph 87% 0.00 in 0 W/m2
23:24 50.5 °F 46.8 °F 29.08 in SSE 5.5 mph 8 mph 87% 0.00 in 0 W/m2
23:29 50.4 °F 46.7 °F 29.08 in South 6 mph 11 mph 87% 0.00 in 0 W/m2
23:34 50.4 °F 46.6 °F 29.07 in SSE 4.2 mph 9 mph 87% 0.00 in 0 W/m2
23:39 50.3 °F 46.7 °F 29.06 in SSE 4.2 mph 9 mph 87.6% 0.00 in 0 W/m2
23:44 50.2 °F 46.8 °F 29.06 in SSE 5.5 mph 10 mph 88% 0.00 in 0 W/m2
23:49 50.2 °F 46.8 °F 29.07 in SSE 7 mph 13 mph 88% 0.00 in 0 W/m2
23:54 50.2 °F 46.8 °F 29.07 in SSE 7.8 mph 15 mph 88% 0.00 in 0 W/m2
23:59 50.2 °F 46.8 °F 29.07 in SSE 5.7 mph 15 mph 88% 0.00 in 0 W/m2
Bath Spa Weather
Compliments of Weather Underground - 2 mb